Time;durP1;ratioP1;P1;durP2;ratioP2;P2;SDS_P1;SDS_P2;PMS_P1;PMS_P2;Temp;Humidity;BMP_temperature;BMP_pressure;BME280_temperature;BME280_humidity;BME280_pressure;Samples;Min_cycle;Max_cycle;Signal;HPM_P1;HPM_P2
2022/12/20 00:00:29;;;;;;;;;;;19.50;43.70;;;;;;5047184;28;19992;-63
2022/12/20 00:02:56;;;;;;;;;;;19.50;43.60;;;;;;5043864;28;19986;-62
2022/12/20 00:05:22;;;;;;;;;;;19.50;43.60;;;;;;5066021;28;19929;-63
2022/12/20 00:07:49;;;;;;;;;;;19.50;43.50;;;;;;5047409;28;19933;-63
2022/12/20 00:10:18;;;;;;;;;;;19.40;43.40;;;;;;5048442;28;19936;-62
2022/12/20 00:12:44;;;;;;;;;;;19.40;43.40;;;;;;5050486;28;19991;-72
2022/12/20 00:15:11;;;;;;;;;;;19.50;43.40;;;;;;5067250;28;19937;-72
2022/12/20 00:17:38;;;;;;;;;;;19.40;43.40;;;;;;5050026;28;19968;-71
2022/12/20 00:20:05;;;;;;;;;;;19.40;43.50;;;;;;5049832;28;19925;-72
2022/12/20 00:22:32;;;;;;;;;;;19.40;43.50;;;;;;5046679;28;20042;-71
2022/12/20 00:24:59;;;;;;;;;;;19.40;43.50;;;;;;5052342;28;19925;-73
2022/12/20 00:27:28;;;;;;;;;;;19.40;43.60;;;;;;5069585;28;19932;-72
2022/12/20 00:29:55;;;;;;;;;;;19.40;43.60;;;;;;5070390;28;19925;-72
2022/12/20 00:32:22;;;;;;;;;;;19.40;43.70;;;;;;5049762;28;19948;-72
2022/12/20 00:34:49;;;;;;;;;;;19.40;43.70;;;;;;5068965;28;19924;-72
2022/12/20 00:37:16;;;;;;;;;;;19.40;43.70;;;;;;5067979;28;19925;-72
2022/12/20 00:39:42;;;;;;;;;;;19.40;43.70;;;;;;5059298;28;19924;-73
2022/12/20 00:42:09;;;;;;;;;;;19.40;43.70;;;;;;5059287;28;19935;-72
2022/12/20 00:44:38;;;;;;;;;;;19.40;43.80;;;;;;5055548;28;19972;-72
2022/12/20 00:47:05;;;;;;;;;;;19.40;43.80;;;;;;5064764;28;19979;-72
2022/12/20 00:49:31;;;;;;;;;;;19.40;43.80;;;;;;5054764;28;19925;-72
2022/12/20 00:51:58;;;;;;;;;;;19.40;43.80;;;;;;5070278;28;20309;-71
2022/12/20 00:54:25;;;;;;;;;;;19.40;43.80;;;;;;5051511;28;19979;-71
2022/12/20 00:56:52;;;;;;;;;;;19.40;43.80;;;;;;5050930;28;19932;-72
2022/12/20 00:59:19;;;;;;;;;;;19.40;43.90;;;;;;5049621;28;19929;-72
2022/12/20 01:01:47;;;;;;;;;;;19.40;43.90;;;;;;5069959;28;19933;-72
2022/12/20 01:04:14;;;;;;;;;;;19.40;43.90;;;;;;5064041;28;19925;-72
2022/12/20 01:06:41;;;;;;;;;;;19.30;43.80;;;;;;5053229;28;19975;-72
2022/12/20 01:09:07;;;;;;;;;;;19.30;43.80;;;;;;5053138;28;20206;-72
2022/12/20 01:11:34;;;;;;;;;;;19.40;43.90;;;;;;5053483;28;19971;-72
2022/12/20 01:14:02;;;;;;;;;;;19.30;43.80;;;;;;5052314;28;19928;-73
2022/12/20 01:16:29;;;;;;;;;;;19.30;43.80;;;;;;5050943;28;19928;-71
2022/12/20 01:18:57;;;;;;;;;;;19.30;43.80;;;;;;5052124;28;19929;-72
2022/12/20 01:21:25;;;;;;;;;;;19.30;43.90;;;;;;5051713;28;20007;-73
2022/12/20 01:23:51;;;;;;;;;;;19.30;43.90;;;;;;5069853;28;19925;-72
2022/12/20 01:26:21;;;;;;;;;;;19.30;43.90;;;;;;5069444;28;19929;-72
2022/12/20 01:28:48;;;;;;;;;;;19.30;43.90;;;;;;5069771;28;19953;-73
2022/12/20 01:31:16;;;;;;;;;;;19.30;43.90;;;;;;5062979;28;19991;-71
2022/12/20 01:33:42;;;;;;;;;;;19.30;43.90;;;;;;5051580;28;19944;-72
2022/12/20 01:36:12;;;;;;;;;;;19.30;43.90;;;;;;5048966;28;19971;-71
2022/12/20 01:38:39;;;;;;;;;;;19.30;43.90;;;;;;5064767;28;19940;-71
2022/12/20 01:41:06;;;;;;;;;;;19.30;43.90;;;;;;5050795;28;19925;-72
2022/12/20 01:43:46;;;;;;;;;;;19.30;43.90;;;;;;5065856;28;19925;-71
2022/12/20 01:46:12;;;;;;;;;;;19.30;43.90;;;;;;5061080;28;19925;-73
2022/12/20 01:48:39;;;;;;;;;;;19.30;43.90;;;;;;5064769;28;19982;-71
2022/12/20 01:51:06;;;;;;;;;;;19.30;43.90;;;;;;5067321;28;19933;-72
2022/12/20 01:53:34;;;;;;;;;;;19.30;43.90;;;;;;5067675;28;19979;-72
2022/12/20 01:56:01;;;;;;;;;;;19.30;43.90;;;;;;5067669;28;19936;-73
2022/12/20 01:58:28;;;;;;;;;;;19.30;43.90;;;;;;5051616;28;20016;-71
2022/12/20 02:00:55;;;;;;;;;;;19.30;43.90;;;;;;5052618;28;19936;-72
2022/12/20 02:03:22;;;;;;;;;;;19.30;43.90;;;;;;5066062;28;19979;-72
2022/12/20 02:05:48;;;;;;;;;;;19.30;43.90;;;;;;5050426;28;19924;-72
2022/12/20 02:08:16;;;;;;;;;;;19.30;43.90;;;;;;5064340;28;19924;-72
2022/12/20 02:10:47;;;;;;;;;;;19.30;43.90;;;;;;5051316;28;19929;-72
2022/12/20 02:13:16;;;;;;;;;;;19.30;43.90;;;;;;5066828;28;20386;-71
2022/12/20 02:15:43;;;;;;;;;;;19.20;43.80;;;;;;5048336;28;19925;-72
2022/12/20 02:18:14;;;;;;;;;;;19.30;43.90;;;;;;5052509;28;19929;-72
2022/12/20 02:20:49;;;;;;;;;;;19.20;43.80;;;;;;5051222;28;19928;-72
2022/12/20 02:23:25;;;;;;;;;;;19.30;43.90;;;;;;5051832;28;20099;-73
2022/12/20 02:25:56;;;;;;;;;;;19.20;43.80;;;;;;5051606;28;19924;-72
2022/12/20 02:28:37;;;;;;;;;;;19.30;43.90;;;;;;5047208;28;19978;-71
2022/12/20 02:31:05;;;;;;;;;;;19.20;43.80;;;;;;5050622;28;19925;-71
2022/12/20 02:33:32;;;;;;;;;;;19.20;43.80;;;;;;5051193;28;19971;-71
2022/12/20 02:35:59;;;;;;;;;;;19.20;43.80;;;;;;5065637;28;19932;-71
2022/12/20 02:38:26;;;;;;;;;;;19.20;43.80;;;;;;5066719;28;19929;-72
2022/12/20 02:40:54;;;;;;;;;;;19.20;43.80;;;;;;5045749;28;19925;-71
2022/12/20 02:46:01;;;;;;;;;;;19.20;43.80;;;;;;5051623;28;19929;-71
2022/12/20 02:48:30;;;;;;;;;;;19.20;43.80;;;;;;5067009;28;19940;-71
2022/12/20 02:50:56;;;;;;;;;;;19.20;43.90;;;;;;5066640;28;20000;-71
2022/12/20 02:53:23;;;;;;;;;;;19.20;43.80;;;;;;5047925;28;19925;-71
2022/12/20 02:55:50;;;;;;;;;;;19.20;43.80;;;;;;5050005;28;19983;-71
2022/12/20 02:58:18;;;;;;;;;;;19.20;43.80;;;;;;5051482;28;19928;-72
2022/12/20 03:00:45;;;;;;;;;;;19.20;43.80;;;;;;5052187;28;20062;-71
2022/12/20 03:03:24;;;;;;;;;;;19.20;43.80;;;;;;5078660;28;20008;-72
2022/12/20 03:05:52;;;;;;;;;;;19.20;43.90;;;;;;5051128;28;20572;-72
2022/12/20 03:08:20;;;;;;;;;;;19.20;43.80;;;;;;5042431;28;19956;-71
2022/12/20 03:10:46;;;;;;;;;;;19.20;43.80;;;;;;5043999;28;19924;-71
2022/12/20 03:13:13;;;;;;;;;;;19.20;43.80;;;;;;5067972;28;19957;-71
2022/12/20 03:15:40;;;;;;;;;;;19.20;43.80;;;;;;5067602;28;19931;-71
2022/12/20 03:18:07;;;;;;;;;;;19.20;43.80;;;;;;5050995;28;19949;-71
2022/12/20 03:20:34;;;;;;;;;;;19.20;43.90;;;;;;5067944;28;19925;-71
2022/12/20 03:23:02;;;;;;;;;;;19.20;43.80;;;;;;5050971;28;19947;-71
2022/12/20 03:25:29;;;;;;;;;;;19.20;43.80;;;;;;5051963;28;19978;-71
2022/12/20 03:27:56;;;;;;;;;;;19.20;43.80;;;;;;5050548;28;19978;-72
2022/12/20 03:30:23;;;;;;;;;;;19.20;43.80;;;;;;5050971;28;19991;-72
2022/12/20 03:32:50;;;;;;;;;;;19.20;43.80;;;;;;5067732;28;19960;-72
2022/12/20 03:35:17;;;;;;;;;;;19.20;43.80;;;;;;5052068;28;19924;-72
2022/12/20 03:37:43;;;;;;;;;;;19.20;43.80;;;;;;5050696;28;19924;-72
2022/12/20 03:40:14;;;;;;;;;;;19.20;43.80;;;;;;5049097;28;19948;-72
2022/12/20 03:42:41;;;;;;;;;;;19.20;43.80;;;;;;5050732;28;19970;-72
2022/12/20 03:45:09;;;;;;;;;;;19.20;43.80;;;;;;5045901;28;19932;-72
2022/12/20 03:47:35;;;;;;;;;;;19.20;43.80;;;;;;5051493;28;19924;-72
2022/12/20 03:50:02;;;;;;;;;;;19.20;43.90;;;;;;5059450;28;19932;-72
2022/12/20 03:52:29;;;;;;;;;;;19.20;43.80;;;;;;5051580;28;20367;-71
2022/12/20 03:54:55;;;;;;;;;;;19.20;43.80;;;;;;5050463;28;19925;-72
2022/12/20 03:57:23;;;;;;;;;;;19.20;43.80;;;;;;5067462;28;19983;-72
2022/12/20 03:59:50;;;;;;;;;;;19.20;43.80;;;;;;5046259;28;19999;-72
2022/12/20 04:02:17;;;;;;;;;;;19.20;43.80;;;;;;5065090;28;20034;-72
2022/12/20 04:04:44;;;;;;;;;;;19.20;43.80;;;;;;5071078;28;19929;-72
2022/12/20 04:07:11;;;;;;;;;;;19.20;43.80;;;;;;5070911;28;19952;-71
2022/12/20 04:09:37;;;;;;;;;;;19.20;43.80;;;;;;5071603;28;19932;-73
2022/12/20 04:12:04;;;;;;;;;;;19.20;43.80;;;;;;5055802;28;19924;-72
2022/12/20 04:14:32;;;;;;;;;;;19.20;43.80;;;;;;5071076;28;19974;-73
2022/12/20 04:16:59;;;;;;;;;;;19.20;43.80;;;;;;5055569;28;19931;-72
2022/12/20 04:19:26;;;;;;;;;;;19.20;43.80;;;;;;5059699;28;19935;-72
2022/12/20 04:21:54;;;;;;;;;;;19.20;43.80;;;;;;5071256;28;19929;-72
2022/12/20 04:24:21;;;;;;;;;;;19.20;43.80;;;;;;5069399;28;19933;-72
2022/12/20 04:26:48;;;;;;;;;;;19.20;43.80;;;;;;5068233;28;19932;-72
2022/12/20 04:29:15;;;;;;;;;;;19.20;43.90;;;;;;5054111;28;20024;-72
2022/12/20 04:31:43;;;;;;;;;;;19.20;43.80;;;;;;5055823;28;19924;-71
2022/12/20 04:34:10;;;;;;;;;;;19.20;43.80;;;;;;5035082;28;19928;-72
2022/12/20 04:36:37;;;;;;;;;;;19.20;43.80;;;;;;5061721;28;20319;-72
2022/12/20 04:39:04;;;;;;;;;;;19.20;43.80;;;;;;5050780;28;20337;-72
2022/12/20 04:41:31;;;;;;;;;;;19.20;43.80;;;;;;5062664;28;19928;-72
2022/12/20 04:43:57;;;;;;;;;;;19.20;43.80;;;;;;5054907;28;19960;-72
2022/12/20 04:46:24;;;;;;;;;;;19.20;43.80;;;;;;5050152;28;19929;-72
2022/12/20 04:48:53;;;;;;;;;;;19.20;43.80;;;;;;5052808;28;19986;-72
2022/12/20 04:51:20;;;;;;;;;;;19.20;43.80;;;;;;5046507;28;19925;-72
2022/12/20 04:53:48;;;;;;;;;;;19.20;43.80;;;;;;5055507;28;19925;-72
2022/12/20 04:56:16;;;;;;;;;;;19.20;43.80;;;;;;5052385;28;19935;-72
2022/12/20 04:58:42;;;;;;;;;;;19.20;43.80;;;;;;5053581;28;19924;-72
2022/12/20 05:01:09;;;;;;;;;;;19.10;43.80;;;;;;5049610;28;19967;-72
2022/12/20 05:03:36;;;;;;;;;;;19.20;43.80;;;;;;5054672;28;20043;-72
2022/12/20 05:06:04;;;;;;;;;;;19.20;43.80;;;;;;5053375;28;19924;-72
2022/12/20 05:08:31;;;;;;;;;;;19.20;43.80;;;;;;5064939;28;20263;-72
2022/12/20 05:10:57;;;;;;;;;;;19.10;43.80;;;;;;5053692;28;20440;-72
2022/12/20 05:13:24;;;;;;;;;;;19.20;43.80;;;;;;5053440;28;19971;-72
2022/12/20 05:15:52;;;;;;;;;;;19.20;43.80;;;;;;5069824;28;19925;-72
2022/12/20 05:18:18;;;;;;;;;;;19.10;43.80;;;;;;5053930;28;19929;-70
2022/12/20 05:20:45;;;;;;;;;;;19.20;43.90;;;;;;5067787;28;19924;-71
2022/12/20 05:28:41;;;;;;;;;;;19.20;43.80;;;;;;5069664;28;19973;-71
2022/12/20 05:31:08;;;;;;;;;;;19.20;43.80;;;;;;5048766;28;19970;-72
2022/12/20 05:33:35;;;;;;;;;;;19.10;43.80;;;;;;5051252;28;19928;-72
2022/12/20 05:36:01;;;;;;;;;;;19.10;43.80;;;;;;5053974;28;19924;-72
2022/12/20 05:38:30;;;;;;;;;;;19.10;43.80;;;;;;5068712;28;19928;-72
2022/12/20 05:40:56;;;;;;;;;;;19.10;43.80;;;;;;5049982;28;19982;-72
2022/12/20 05:43:23;;;;;;;;;;;19.20;43.90;;;;;;5051608;28;19925;-73
2022/12/20 05:45:50;;;;;;;;;;;19.10;43.80;;;;;;5044118;28;19978;-72
2022/12/20 05:48:19;;;;;;;;;;;19.10;43.80;;;;;;5051666;28;19986;-71
2022/12/20 05:50:45;;;;;;;;;;;19.10;43.80;;;;;;5068666;28;19925;-72
2022/12/20 05:53:12;;;;;;;;;;;19.10;43.80;;;;;;5052020;28;20414;-71
2022/12/20 05:55:43;;;;;;;;;;;19.10;43.80;;;;;;5069167;28;19933;-72
2022/12/20 05:58:12;;;;;;;;;;;19.10;43.80;;;;;;5051525;28;19928;-72
2022/12/20 06:00:39;;;;;;;;;;;19.10;43.80;;;;;;5049983;28;20016;-72
2022/12/20 06:03:06;;;;;;;;;;;19.10;43.80;;;;;;5049753;28;20019;-71
2022/12/20 06:05:33;;;;;;;;;;;19.10;43.80;;;;;;5062865;28;19929;-72
2022/12/20 06:07:59;;;;;;;;;;;19.10;43.80;;;;;;5067913;28;19925;-72
2022/12/20 06:10:26;;;;;;;;;;;19.10;43.80;;;;;;5052863;28;19971;-72
2022/12/20 06:12:54;;;;;;;;;;;19.10;43.80;;;;;;5051317;28;19988;-71
2022/12/20 06:15:21;;;;;;;;;;;19.10;43.80;;;;;;5050424;28;19932;-71
2022/12/20 06:17:48;;;;;;;;;;;19.10;43.80;;;;;;5066115;28;19924;-71
2022/12/20 06:20:14;;;;;;;;;;;19.10;43.80;;;;;;5048916;28;19955;-72
2022/12/20 06:22:41;;;;;;;;;;;19.10;43.80;;;;;;5051936;28;19925;-71
2022/12/20 06:25:09;;;;;;;;;;;19.10;43.80;;;;;;5053411;28;19954;-72
2022/12/20 06:27:36;;;;;;;;;;;19.10;43.80;;;;;;5053506;28;19932;-72
2022/12/20 06:30:04;;;;;;;;;;;19.10;43.80;;;;;;5036353;28;19925;-71
2022/12/20 06:32:31;;;;;;;;;;;19.10;43.80;;;;;;5067856;28;19925;-70
2022/12/20 06:34:57;;;;;;;;;;;19.10;43.80;;;;;;5068205;28;19925;-71
2022/12/20 06:37:24;;;;;;;;;;;19.10;43.80;;;;;;5068430;28;19998;-72
2022/12/20 06:39:51;;;;;;;;;;;19.10;43.80;;;;;;5067949;28;19925;-71
2022/12/20 06:42:17;;;;;;;;;;;19.10;43.80;;;;;;5051820;28;19925;-72
2022/12/20 06:44:44;;;;;;;;;;;19.10;43.80;;;;;;5052495;28;20387;-71
2022/12/20 06:47:13;;;;;;;;;;;19.10;43.80;;;;;;5047883;28;19947;-71
2022/12/20 06:49:39;;;;;;;;;;;19.10;43.80;;;;;;5068232;28;19931;-72
2022/12/20 06:52:06;;;;;;;;;;;19.10;43.80;;;;;;5050730;28;19925;-72
2022/12/20 06:54:33;;;;;;;;;;;19.10;43.80;;;;;;5068586;28;19983;-72
2022/12/20 06:56:59;;;;;;;;;;;19.10;43.80;;;;;;5052887;28;19925;-72
2022/12/20 06:59:26;;;;;;;;;;;19.10;43.80;;;;;;5051569;28;19928;-72
2022/12/20 07:01:53;;;;;;;;;;;19.10;43.80;;;;;;5040988;28;20515;-73
2022/12/20 07:04:21;;;;;;;;;;;19.10;43.80;;;;;;5066246;28;19932;-73
2022/12/20 07:06:48;;;;;;;;;;;19.10;43.80;;;;;;5068074;28;19924;-72
2022/12/20 07:09:15;;;;;;;;;;;19.10;43.80;;;;;;5050951;28;20385;-72
2022/12/20 07:11:42;;;;;;;;;;;19.10;43.80;;;;;;5043697;28;19933;-72
2022/12/20 07:14:09;;;;;;;;;;;19.10;43.80;;;;;;5063570;28;20357;-72
2022/12/20 07:16:36;;;;;;;;;;;19.10;43.80;;;;;;5047472;28;19992;-73
2022/12/20 07:19:02;;;;;;;;;;;19.10;43.80;;;;;;5048274;28;19925;-73
2022/12/20 07:21:30;;;;;;;;;;;19.10;43.90;;;;;;5040399;28;19986;-72
2022/12/20 07:23:57;;;;;;;;;;;19.10;43.80;;;;;;5050390;28;20313;-72
2022/12/20 07:26:24;;;;;;;;;;;19.10;43.80;;;;;;5051184;28;20325;-73
2022/12/20 07:28:51;;;;;;;;;;;19.10;43.80;;;;;;5067866;28;19964;-73
2022/12/20 07:31:17;;;;;;;;;;;19.10;43.80;;;;;;5060520;28;20017;-72
2022/12/20 07:33:44;;;;;;;;;;;19.10;43.80;;;;;;5064346;28;19975;-73
2022/12/20 07:36:11;;;;;;;;;;;19.10;43.80;;;;;;5050375;28;19932;-72
2022/12/20 07:38:39;;;;;;;;;;;19.10;43.80;;;;;;5052235;28;20014;-72
2022/12/20 07:41:07;;;;;;;;;;;19.10;43.90;;;;;;5067543;28;19986;-72
2022/12/20 07:43:33;;;;;;;;;;;19.10;43.90;;;;;;5051042;28;20329;-72
2022/12/20 07:46:00;;;;;;;;;;;19.10;43.80;;;;;;5067162;28;19924;-72
2022/12/20 07:48:27;;;;;;;;;;;19.10;43.80;;;;;;5067576;28;19928;-72
2022/12/20 07:50:54;;;;;;;;;;;19.10;43.80;;;;;;5067410;28;19975;-73
2022/12/20 07:53:21;;;;;;;;;;;19.10;44.50;;;;;;5047308;28;19995;-72
2022/12/20 07:55:49;;;;;;;;;;;19.10;43.90;;;;;;5056915;28;19929;-71
2022/12/20 07:58:17;;;;;;;;;;;19.10;43.80;;;;;;5052021;28;19956;-73
2022/12/20 08:00:44;;;;;;;;;;;19.10;43.90;;;;;;5050654;28;20050;-73
2022/12/20 08:03:11;;;;;;;;;;;19.10;43.90;;;;;;5050127;28;19924;-73
2022/12/20 08:05:39;;;;;;;;;;;19.10;43.90;;;;;;5049460;28;19924;-73
2022/12/20 08:08:06;;;;;;;;;;;19.10;43.80;;;;;;5056218;28;19939;-73
2022/12/20 08:10:33;;;;;;;;;;;19.10;43.90;;;;;;5047173;28;19925;-73
2022/12/20 08:13:01;;;;;;;;;;;19.10;43.90;;;;;;5050796;28;19924;-72
2022/12/20 08:15:28;;;;;;;;;;;19.10;43.90;;;;;;5067613;28;19925;-72
2022/12/20 08:17:54;;;;;;;;;;;19.10;43.90;;;;;;5061495;28;19932;-71
2022/12/20 08:20:21;;;;;;;;;;;19.10;43.90;;;;;;5047794;28;20417;-72
2022/12/20 08:22:48;;;;;;;;;;;19.10;43.90;;;;;;5067289;28;19947;-72
2022/12/20 08:25:15;;;;;;;;;;;19.10;43.90;;;;;;5067903;28;19929;-72
2022/12/20 08:27:42;;;;;;;;;;;19.10;43.90;;;;;;5047245;28;19978;-72
2022/12/20 08:30:11;;;;;;;;;;;19.10;43.90;;;;;;5067006;28;19948;-72
2022/12/20 08:32:38;;;;;;;;;;;19.10;43.90;;;;;;5047666;28;19925;-73
2022/12/20 08:35:05;;;;;;;;;;;19.10;43.90;;;;;;5066173;28;20059;-73
2022/12/20 08:37:32;;;;;;;;;;;19.10;43.90;;;;;;5046980;28;19929;-73
2022/12/20 08:39:59;;;;;;;;;;;19.10;43.90;;;;;;5051489;28;19924;-71
2022/12/20 08:42:26;;;;;;;;;;;19.10;43.90;;;;;;5050375;28;19944;-72
2022/12/20 08:44:53;;;;;;;;;;;19.10;43.90;;;;;;5049907;28;19925;-72
2022/12/20 08:47:21;;;;;;;;;;;19.10;43.90;;;;;;5042496;28;19925;-73
2022/12/20 08:49:48;;;;;;;;;;;19.10;43.90;;;;;;5067213;28;19932;-73
2022/12/20 08:52:15;;;;;;;;;;;19.10;43.90;;;;;;5054591;28;19936;-72
2022/12/20 08:54:41;;;;;;;;;;;19.10;43.90;;;;;;5055559;28;19947;-73
2022/12/20 08:57:08;;;;;;;;;;;19.10;43.90;;;;;;5067192;28;19983;-72
2022/12/20 08:59:35;;;;;;;;;;;19.10;43.90;;;;;;5053623;28;19932;-62
2022/12/20 09:02:02;;;;;;;;;;;19.10;43.90;;;;;;5050578;28;19928;-62
2022/12/20 09:04:30;;;;;;;;;;;19.10;43.90;;;;;;5053608;28;20427;-62
2022/12/20 09:06:57;;;;;;;;;;;19.10;43.90;;;;;;5058409;28;19925;-63
2022/12/20 09:09:23;;;;;;;;;;;19.10;43.90;;;;;;5051601;28;19963;-63
2022/12/20 09:11:50;;;;;;;;;;;19.10;43.90;;;;;;5046679;28;19929;-63
2022/12/20 09:14:17;;;;;;;;;;;19.10;43.90;;;;;;5067729;28;19963;-63
2022/12/20 09:16:44;;;;;;;;;;;19.10;43.90;;;;;;5042544;28;19933;-63
2022/12/20 09:19:11;;;;;;;;;;;19.10;43.90;;;;;;5058582;28;19932;-63
2022/12/20 09:21:39;;;;;;;;;;;19.10;43.90;;;;;;5051261;28;19932;-63
2022/12/20 09:24:07;;;;;;;;;;;19.10;43.90;;;;;;5068361;28;19933;-62
2022/12/20 09:26:34;;;;;;;;;;;19.10;43.90;;;;;;5044501;28;19940;-62
2022/12/20 09:29:01;;;;;;;;;;;19.10;43.90;;;;;;5068946;28;20011;-63
2022/12/20 09:31:28;;;;;;;;;;;19.10;43.90;;;;;;5050779;28;19975;-63
2022/12/20 09:33:56;;;;;;;;;;;19.10;43.90;;;;;;5049010;28;20038;-62
2022/12/20 09:36:23;;;;;;;;;;;19.10;43.90;;;;;;5069032;28;19933;-63
2022/12/20 09:38:52;;;;;;;;;;;19.10;43.90;;;;;;5067969;28;19925;-63
2022/12/20 09:41:26;;;;;;;;;;;19.10;43.90;;;;;;5060614;28;19925;-62
2022/12/20 09:43:53;;;;;;;;;;;19.10;43.90;;;;;;5052360;28;20341;-63
2022/12/20 09:46:19;;;;;;;;;;;19.10;43.80;;;;;;5050848;28;19986;-63
2022/12/20 09:48:46;;;;;;;;;;;19.10;43.80;;;;;;5050458;28;19982;-63
2022/12/20 09:51:15;;;;;;;;;;;19.10;43.90;;;;;;5066166;28;19935;-62
2022/12/20 09:53:44;;;;;;;;;;;19.10;43.90;;;;;;5065723;28;19925;-62
2022/12/20 09:56:13;;;;;;;;;;;19.10;43.90;;;;;;5060112;28;19976;-61
2022/12/20 09:58:45;;;;;;;;;;;19.10;43.90;;;;;;5048550;28;19933;-63
2022/12/20 10:01:15;;;;;;;;;;;19.10;43.90;;;;;;5043407;28;19925;-62
2022/12/20 10:03:41;;;;;;;;;;;19.10;43.90;;;;;;5051627;28;20436;-63
2022/12/20 10:06:09;;;;;;;;;;;19.10;43.90;;;;;;5065412;28;19933;-62
2022/12/20 10:08:42;;;;;;;;;;;19.10;43.90;;;;;;5049008;28;19971;-63
2022/12/20 10:11:10;;;;;;;;;;;19.10;43.90;;;;;;5052025;28;19986;-62
2022/12/20 10:13:46;;;;;;;;;;;19.10;43.90;;;;;;5067170;28;19929;-62
2022/12/20 10:16:17;;;;;;;;;;;19.10;44.00;;;;;;5047103;28;20351;-62
2022/12/20 10:18:47;;;;;;;;;;;19.10;43.90;;;;;;5052293;28;20007;-61
2022/12/20 10:21:16;;;;;;;;;;;19.10;44.00;;;;;;5047644;28;20372;-61
2022/12/20 10:23:43;;;;;;;;;;;19.10;44.00;;;;;;5044909;28;19929;-62
2022/12/20 10:26:10;;;;;;;;;;;19.10;44.00;;;;;;5050450;28;20409;-62
2022/12/20 10:28:37;;;;;;;;;;;19.10;44.00;;;;;;5045834;28;19952;-62
2022/12/20 10:31:06;;;;;;;;;;;19.10;44.00;;;;;;5060404;28;19925;-63
2022/12/20 10:33:33;;;;;;;;;;;19.10;44.00;;;;;;5062818;28;19929;-62
2022/12/20 10:36:14;;;;;;;;;;;19.10;44.00;;;;;;5048717;28;19987;-62
2022/12/20 10:38:43;;;;;;;;;;;19.10;44.00;;;;;;5067775;28;19975;-62
2022/12/20 10:41:11;;;;;;;;;;;19.10;44.00;;;;;;5042002;28;19975;-62
2022/12/20 10:43:40;;;;;;;;;;;19.20;44.60;;;;;;5048320;28;19931;-62
2022/12/20 10:46:08;;;;;;;;;;;19.10;44.00;;;;;;5052744;28;19932;-63
2022/12/20 10:48:35;;;;;;;;;;;19.10;44.00;;;;;;5068038;28;19932;-63
2022/12/20 10:51:03;;;;;;;;;;;19.20;44.10;;;;;;5051764;28;19932;-63
2022/12/20 10:53:29;;;;;;;;;;;19.20;44.10;;;;;;5051816;28;19924;-62
2022/12/20 10:56:09;;;;;;;;;;;19.20;44.10;;;;;;5052327;28;20393;-64
2022/12/20 10:58:35;;;;;;;;;;;19.20;44.10;;;;;;5058260;28;20004;-63
2022/12/20 11:01:11;;;;;;;;;;;19.10;44.00;;;;;;5044821;28;19970;-61
2022/12/20 11:03:48;;;;;;;;;;;19.20;44.00;;;;;;5047078;28;19967;-63
2022/12/20 11:06:16;;;;;;;;;;;19.10;44.00;;;;;;5049021;28;19931;-63
2022/12/20 11:08:42;;;;;;;;;;;19.20;44.10;;;;;;5059693;28;19943;-72
2022/12/20 11:11:13;;;;;;;;;;;19.20;44.10;;;;;;5066897;28;19983;-72
2022/12/20 11:13:40;;;;;;;;;;;19.10;44.10;;;;;;5041993;28;19933;-71
2022/12/20 11:16:11;;;;;;;;;;;19.20;44.20;;;;;;5054972;28;19931;-71
2022/12/20 11:18:40;;;;;;;;;;;19.20;44.10;;;;;;5050047;28;19932;-72
2022/12/20 11:21:11;;;;;;;;;;;19.20;44.20;;;;;;5046864;28;19933;-69
2022/12/20 11:23:39;;;;;;;;;;;19.20;44.20;;;;;;5062813;28;19968;-68
2022/12/20 11:26:10;;;;;;;;;;;19.20;44.20;;;;;;5056223;28;19933;-67
2022/12/20 11:28:40;;;;;;;;;;;19.20;44.30;;;;;;5045931;28;20077;-70
2022/12/20 11:31:09;;;;;;;;;;;19.20;44.90;;;;;;5067367;28;19925;-66
2022/12/20 11:33:50;;;;;;;;;;;19.20;44.20;;;;;;5047969;28;19932;-72
2022/12/20 11:36:18;;;;;;;;;;;19.20;44.20;;;;;;5043539;28;19939;-67
2022/12/20 11:38:56;;;;;;;;;;;19.20;44.30;;;;;;5066713;28;19932;-68
2022/12/20 11:41:25;;;;;;;;;;;19.20;44.40;;;;;;5058670;28;20366;-70
2022/12/20 11:43:56;;;;;;;;;;;19.20;44.40;;;;;;5050253;28;19929;-72
2022/12/20 11:46:26;;;;;;;;;;;19.30;44.50;;;;;;5059030;28;19928;-71
2022/12/20 11:49:08;;;;;;;;;;;19.20;44.50;;;;;;5049047;28;19984;-72
2022/12/20 11:51:38;;;;;;;;;;;19.30;44.50;;;;;;5041414;28;19925;-71
2022/12/20 11:54:07;;;;;;;;;;;19.30;44.50;;;;;;5047890;28;19928;-72
2022/12/20 11:56:35;;;;;;;;;;;19.30;44.50;;;;;;5064165;28;19925;-73
2022/12/20 11:59:03;;;;;;;;;;;19.30;44.50;;;;;;5057197;28;19924;-71
2022/12/20 12:01:32;;;;;;;;;;;19.30;44.60;;;;;;5061289;28;20567;-72
2022/12/20 12:04:03;;;;;;;;;;;19.30;44.60;;;;;;5049073;28;19952;-71
2022/12/20 12:06:30;;;;;;;;;;;19.30;44.70;;;;;;5047163;28;19925;-71
2022/12/20 12:09:03;;;;;;;;;;;19.30;44.70;;;;;;5048609;28;19931;-72
2022/12/20 12:11:31;;;;;;;;;;;19.30;44.70;;;;;;5066605;28;19978;-72
2022/12/20 12:13:57;;;;;;;;;;;19.40;44.80;;;;;;5050732;28;19925;-73
2022/12/20 12:16:25;;;;;;;;;;;19.30;44.70;;;;;;5063290;28;19933;-72
2022/12/20 12:18:53;;;;;;;;;;;19.30;44.80;;;;;;5039385;28;20267;-73
2022/12/20 12:21:21;;;;;;;;;;;19.40;44.80;;;;;;5049533;28;19925;-73
2022/12/20 12:23:50;;;;;;;;;;;19.40;44.80;;;;;;5067664;28;19972;-73
2022/12/20 12:26:20;;;;;;;;;;;19.40;44.80;;;;;;5060699;28;19975;-69
2022/12/20 12:28:47;;;;;;;;;;;19.40;44.80;;;;;;5069864;28;20244;-69
2022/12/20 12:31:14;;;;;;;;;;;19.40;44.80;;;;;;5049644;28;19952;-70
2022/12/20 12:33:42;;;;;;;;;;;19.40;44.80;;;;;;5047123;28;19929;-69
2022/12/20 12:36:16;;;;;;;;;;;19.40;44.80;;;;;;5067196;28;20444;-71
2022/12/20 12:38:55;;;;;;;;;;;19.40;44.90;;;;;;5064575;28;19975;-71
2022/12/20 12:41:39;;;;;;;;;;;19.40;45.00;;;;;;5039402;28;19925;-71
2022/12/20 12:44:10;;;;;;;;;;;19.40;45.00;;;;;;5059480;28;19971;-74
2022/12/20 12:46:38;;;;;;;;;;;19.40;45.10;;;;;;5048773;28;19936;-73
2022/12/20 12:49:05;;;;;;;;;;;19.40;45.10;;;;;;5030680;28;19925;-73
2022/12/20 12:51:31;;;;;;;;;;;19.40;45.10;;;;;;5070433;28;19928;-73
2022/12/20 12:54:03;;;;;;;;;;;19.50;45.20;;;;;;5050070;28;19928;-73
2022/12/20 12:56:33;;;;;;;;;;;19.50;45.20;;;;;;5068853;28;20031;-74
2022/12/20 12:59:19;;;;;;;;;;;19.50;45.20;;;;;;5062083;28;19925;-73
2022/12/20 13:01:49;;;;;;;;;;;19.40;45.20;;;;;;5049516;28;19935;-73
2022/12/20 13:04:26;;;;;;;;;;;19.50;45.30;;;;;;5049177;28;19929;-72
2022/12/20 13:06:57;;;;;;;;;;;19.50;45.20;;;;;;5049920;28;19925;-71
2022/12/20 13:09:36;;;;;;;;;;;19.50;45.30;;;;;;5050083;28;19983;-71
2022/12/20 13:12:17;;;;;;;;;;;19.50;45.30;;;;;;5044664;28;20015;-72
2022/12/20 13:14:52;;;;;;;;;;;19.40;45.30;;;;;;5059217;28;19928;-71
2022/12/20 13:17:37;;;;;;;;;;;19.50;45.40;;;;;;5064412;28;19936;-72
2022/12/20 13:20:14;;;;;;;;;;;19.50;45.40;;;;;;5050969;28;19925;-73
2022/12/20 13:22:41;;;;;;;;;;;19.50;45.40;;;;;;5051052;28;20358;-79
2022/12/20 13:25:26;;;;;;;;;;;19.50;45.40;;;;;;5057494;28;19984;-74
2022/12/20 13:27:53;;;;;;;;;;;19.50;45.40;;;;;;5058928;28;19924;-73
2022/12/20 13:30:25;;;;;;;;;;;19.50;45.40;;;;;;5052453;28;19979;-74
2022/12/20 13:32:59;;;;;;;;;;;19.50;45.40;;;;;;5037139;28;19925;-72
2022/12/20 13:35:29;;;;;;;;;;;19.50;45.50;;;;;;5045952;28;20003;-72
2022/12/20 13:37:56;;;;;;;;;;;19.50;45.50;;;;;;5047513;28;19925;-72
2022/12/20 13:40:26;;;;;;;;;;;19.50;45.50;;;;;;5066920;28;20420;-72
2022/12/20 13:42:53;;;;;;;;;;;19.50;45.50;;;;;;5060132;28;19928;-72
2022/12/20 13:45:20;;;;;;;;;;;19.50;45.50;;;;;;5049989;28;19929;-72
2022/12/20 13:47:48;;;;;;;;;;;19.50;45.50;;;;;;5052068;28;19960;-70
2022/12/20 13:50:22;;;;;;;;;;;19.50;45.50;;;;;;5066137;28;19929;-70
2022/12/20 13:52:48;;;;;;;;;;;19.60;45.60;;;;;;5041817;28;19964;-70
2022/12/20 13:55:16;;;;;;;;;;;19.50;45.50;;;;;;5057543;28;19931;-72
2022/12/20 13:57:43;;;;;;;;;;;19.60;45.60;;;;;;5044927;28;19932;-72
2022/12/20 14:00:14;;;;;;;;;;;19.60;45.60;;;;;;5064551;28;19996;-71
2022/12/20 14:02:41;;;;;;;;;;;19.50;45.50;;;;;;5044501;28;19925;-71
2022/12/20 14:05:15;;;;;;;;;;;19.50;45.50;;;;;;5064149;28;19947;-71
2022/12/20 14:07:42;;;;;;;;;;;19.60;45.60;;;;;;5043094;28;20270;-69
2022/12/20 14:10:17;;;;;;;;;;;19.50;45.50;;;;;;5066626;28;19929;-73
2022/12/20 14:12:44;;;;;;;;;;;19.60;45.60;;;;;;5046795;28;20019;-70
2022/12/20 14:15:21;;;;;;;;;;;19.50;45.50;;;;;;5047435;28;19925;-71
2022/12/20 14:17:47;;;;;;;;;;;19.50;45.60;;;;;;5063749;28;19945;-71
2022/12/20 14:20:16;;;;;;;;;;;19.50;45.50;;;;;;5046624;28;19935;-71
2022/12/20 14:22:46;;;;;;;;;;;19.60;45.60;;;;;;5047021;28;20331;-71
2022/12/20 14:25:14;;;;;;;;;;;19.60;45.70;;;;;;5045075;28;19925;-73
2022/12/20 14:27:41;;;;;;;;;;;19.60;45.60;;;;;;5068478;28;19924;-76
2022/12/20 14:30:22;;;;;;;;;;;19.60;45.60;;;;;;5061968;28;20169;-70